Time,TemperatureF,DewpointF,PressureIn,WindDirection,WindDirectionDegrees,WindSpeedMPH,WindSpeedGustMPH,Humidity,HourlyPrecipIn,Conditions,Clouds,dailyrainin,SoftwareType,DateUTC
2013-02-11 00:09:00,41.8,29.0,30.05,NW,324,0.0,-999.0,60,-99.99,,,0.00,weatherlink.com 1.10,2013-02-11 08:09:00,
2013-02-11 00:24:00,41.2,29.0,30.06,NW,324,0.0,-999.0,62,-99.99,,,0.00,weatherlink.com 1.10,2013-02-11 08:24:00,
2013-02-11 00:39:00,40.6,29.0,30.06,NW,324,0.0,-999.0,63,-99.99,,,0.00,weatherlink.com 1.10,2013-02-11 08:39:00,
2013-02-11 00:54:00,40.1,29.0,30.06,NW,324,0.0,-999.0,65,-99.99,,,0.00,weatherlink.com 1.10,2013-02-11 08:54:00,
2013-02-11 01:09:00,39.8,29.0,30.06,NW,324,0.0,-999.0,65,-99.99,,,0.00,weatherlink.com 1.10,2013-02-11 09:09:00,
2013-02-11 01:24:00,39.9,29.0,30.06,ENE,64,0.0,-999.0,64,-99.99,,,0.00,weatherlink.com 1.10,2013-02-11 09:24:00,
2013-02-11 01:39:00,40.2,29.0,30.06,ENE,65,0.0,-999.0,64,-99.99,,,0.00,weatherlink.com 1.10,2013-02-11 09:39:00,
2013-02-11 01:54:00,40.5,29.0,30.06,East,98,0.0,-999.0,64,-99.99,,,0.00,weatherlink.com 1.10,2013-02-11 09:54:00,
2013-02-11 02:09:00,40.9,28.0,30.06,SE,130,0.0,-999.0,61,-99.99,,,0.00,weatherlink.com 1.10,2013-02-11 10:09:00,
2013-02-11 02:24:00,42.1,26.0,30.06,ENE,61,0.0,-999.0,54,-99.99,,,0.00,weatherlink.com 1.10,2013-02-11 10:24:00,
2013-02-11 02:39:00,45.7,25.0,30.06,NNW,336,0.0,-999.0,44,-99.99,,,0.00,weatherlink.com 1.10,2013-02-11 10:39:00,
2013-02-11 02:54:00,50.4,24.0,30.06,NNE,17,0.0,-999.0,35,-99.99,,,0.00,weatherlink.com 1.10,2013-02-11 10:54:00,
2013-02-11 03:09:00,52.8,23.0,30.06,NNE,17,0.0,-999.0,31,-99.99,,,0.00,weatherlink.com 1.10,2013-02-11 11:09:00,
2013-02-11 03:24:00,52.9,23.0,30.05,North,350,4.0,-999.0,31,-99.99,,,0.00,weatherlink.com 1.10,2013-02-11 11:24:00,
2013-02-11 03:39:00,52.3,22.0,30.06,NNE,20,0.0,-999.0,31,-99.99,,,0.00,weatherlink.com 1.10,2013-02-11 11:39:00,
2013-02-11 03:54:00,52.5,22.0,30.05,ESE,117,0.0,-999.0,31,-99.99,,,0.00,weatherlink.com 1.10,2013-02-11 11:54:00,
2013-02-11 04:09:00,53.2,22.0,30.06,NW,320,0.0,-999.0,30,-99.99,,,0.00,weatherlink.com 1.10,2013-02-11 12:09:00,
2013-02-11 04:24:00,53.2,22.0,30.07,North,355,0.0,-999.0,30,-99.99,,,0.00,weatherlink.com 1.10,2013-02-11 12:24:00,
2013-02-11 04:39:00,52.6,23.0,30.07,North,351,3.0,-999.0,31,-99.99,,,0.00,weatherlink.com 1.10,2013-02-11 12:39:00,
2013-02-11 04:54:00,53.2,22.0,30.07,NW,312,2.0,-999.0,29,-99.99,,,0.00,weatherlink.com 1.10,2013-02-11 12:54:00,
2013-02-11 05:09:00,53.3,21.0,30.08,NNW,341,0.0,-999.0,28,-99.99,,,0.00,weatherlink.com 1.10,2013-02-11 13:09:00,
2013-02-11 05:24:00,53.2,21.0,30.09,NNE,12,0.0,-999.0,28,-99.99,,,0.00,weatherlink.com 1.10,2013-02-11 13:24:00,
2013-02-11 05:39:00,52.6,22.0,30.09,NE,38,0.0,-999.0,30,-99.99,,,0.00,weatherlink.com 1.10,2013-02-11 13:39:00,
2013-02-11 05:55:00,51.7,23.0,30.09,North,10,0.0,-999.0,32,-99.99,,,0.00,weatherlink.com 1.10,2013-02-11 13:55:00,
2013-02-11 06:10:00,50.4,24.0,30.10,North,10,0.0,-999.0,35,-99.99,,,0.00,weatherlink.com 1.10,2013-02-11 14:10:00,
2013-02-11 06:25:00,48.3,25.0,30.11,North,10,0.0,-999.0,40,-99.99,,,0.00,weatherlink.com 1.10,2013-02-11 14:25:00,
2013-02-11 06:40:00,46.5,26.0,30.11,North,10,0.0,-999.0,45,-99.99,,,0.00,weatherlink.com 1.10,2013-02-11 14:40:00,
2013-02-11 06:55:00,44.3,26.0,30.11,North,10,0.0,-999.0,49,-99.99,,,0.00,weatherlink.com 1.10,2013-02-11 14:55:00,
2013-02-11 07:10:00,42.8,27.0,30.12,ENE,62,0.0,-999.0,54,-99.99,,,0.00,weatherlink.com 1.10,2013-02-11 15:10:00,
2013-02-11 07:25:00,42.1,27.0,30.12,ENE,61,0.0,-999.0,56,-99.99,,,0.00,weatherlink.com 1.10,2013-02-11 15:25:00,
2013-02-11 07:40:00,41.8,27.0,30.12,WNW,288,1.0,-999.0,57,-99.99,,,0.00,weatherlink.com 1.10,2013-02-11 15:40:00,
2013-02-11 07:55:00,42.2,29.0,30.13,WNW,288,2.0,-999.0,60,-99.99,,,0.00,weatherlink.com 1.10,2013-02-11 15:55:00,
2013-02-11 08:10:00,44.1,29.0,30.14,North,349,0.0,-999.0,56,-99.99,,,0.00,weatherlink.com 1.10,2013-02-11 16:10:00,
2013-02-11 08:25:00,46.4,31.0,30.14,NW,317,2.0,-999.0,55,-99.99,,,0.00,weatherlink.com 1.10,2013-02-11 16:25:00,
2013-02-11 08:40:00,50.1,28.0,30.15,NNE,32,0.0,-999.0,42,-99.99,,,0.00,weatherlink.com 1.10,2013-02-11 16:40:00,
2013-02-11 08:55:00,53.9,24.0,30.15,NE,35,0.0,-999.0,32,-99.99,,,0.00,weatherlink.com 1.10,2013-02-11 16:55:00,
2013-02-11 09:10:00,56.5,24.0,30.15,NE,44,0.0,-999.0,28,-99.99,,,0.00,weatherlink.com 1.10,2013-02-11 17:10:00,
2013-02-11 09:25:00,58.0,25.0,30.15,NNW,327,0.0,-999.0,28,-99.99,,,0.00,weatherlink.com 1.10,2013-02-11 17:25:00,
2013-02-11 09:40:00,59.0,25.0,30.16,North,355,0.0,-999.0,27,-99.99,,,0.00,weatherlink.com 1.10,2013-02-11 17:40:00,
2013-02-11 09:55:00,59.8,26.0,30.16,NNE,25,3.0,-999.0,27,-99.99,,,0.00,weatherlink.com 1.10,2013-02-11 17:55:00,
2013-02-11 10:10:00,60.7,26.0,30.16,NNW,334,5.0,-999.0,27,-99.99,,,0.00,weatherlink.com 1.10,2013-02-11 18:10:00,
2013-02-11 10:25:00,61.2,26.0,30.16,NE,35,5.0,-999.0,26,-99.99,,,0.00,weatherlink.com 1.10,2013-02-11 18:25:00,
2013-02-11 10:40:00,61.3,27.0,30.17,NNE,26,3.0,-999.0,27,-99.99,,,0.00,weatherlink.com 1.10,2013-02-11 18:40:00,
2013-02-11 10:55:00,62.0,27.0,30.17,NE,34,4.0,-999.0,26,-99.99,,,0.00,weatherlink.com 1.10,2013-02-11 18:55:00,
2013-02-11 11:10:00,62.7,27.0,30.16,NE,42,5.0,-999.0,26,-99.99,,,0.00,weatherlink.com 1.10,2013-02-11 19:10:00,
2013-02-11 11:25:00,63.7,27.0,30.16,SE,146,0.0,-999.0,25,-99.99,,,0.00,weatherlink.com 1.10,2013-02-11 19:25:00,
2013-02-11 11:40:00,64.5,28.0,30.15,NNE,26,2.0,-999.0,25,-99.99,,,0.00,weatherlink.com 1.10,2013-02-11 19:40:00,
2013-02-11 12:10:00,65.6,28.0,30.13,North,355,2.0,-999.0,24,-99.99,,,0.00,weatherlink.com 1.10,2013-02-11 20:10:00,
2013-02-11 12:25:00,66.4,26.0,30.13,NE,40,3.0,-999.0,22,-99.99,,,0.00,weatherlink.com 1.10,2013-02-11 20:25:00,
2013-02-11 12:40:00,66.9,29.0,30.12,NE,51,0.0,-999.0,24,-99.99,,,0.00,weatherlink.com 1.10,2013-02-11 20:40:00,
2013-02-11 12:55:00,67.3,28.0,30.12,NNW,340,0.0,-999.0,23,-99.99,,,0.00,weatherlink.com 1.10,2013-02-11 20:55:00,
2013-02-11 13:10:00,67.8,27.0,30.11,NNE,26,2.0,-999.0,22,-99.99,,,0.00,weatherlink.com 1.10,2013-02-11 21:10:00,
2013-02-11 13:25:00,68.4,30.0,30.11,NNW,340,0.0,-999.0,24,-99.99,,,0.00,weatherlink.com 1.10,2013-02-11 21:25:00,
2013-02-11 13:40:00,68.6,29.0,30.10,NNW,330,0.0,-999.0,23,-99.99,,,0.00,weatherlink.com 1.10,2013-02-11 21:40:00,
2013-02-11 13:55:00,69.1,29.0,30.10,NNW,343,1.0,-999.0,22,-99.99,,,0.00,weatherlink.com 1.10,2013-02-11 21:55:00,
2013-02-11 14:10:00,69.1,26.0,30.10,NNE,22,2.0,-999.0,20,-99.99,,,0.00,weatherlink.com 1.10,2013-02-11 22:10:00,
2013-02-11 14:25:00,69.6,27.0,30.09,NE,56,1.0,-999.0,20,-99.99,,,0.00,weatherlink.com 1.10,2013-02-11 22:25:00,
2013-02-11 14:40:00,69.6,27.0,30.09,NE,43,0.0,-999.0,20,-99.99,,,0.00,weatherlink.com 1.10,2013-02-11 22:40:00,
2013-02-11 14:55:00,69.9,26.0,30.09,SE,134,0.0,-999.0,19,-99.99,,,0.00,weatherlink.com 1.10,2013-02-11 22:55:00,
2013-02-11 15:11:00,69.4,24.0,30.08,NE,36,0.0,-999.0,18,-99.99,,,0.00,weatherlink.com 1.10,2013-02-11 23:11:00,
2013-02-11 15:26:00,69.6,24.0,30.08,NE,42,0.0,-999.0,18,-99.99,,,0.00,weatherlink.com 1.10,2013-02-11 23:26:00,
2013-02-11 15:41:00,69.9,26.0,30.08,NE,55,0.0,-999.0,19,-99.99,,,0.00,weatherlink.com 1.10,2013-02-11 23:41:00,
2013-02-11 15:56:00,69.6,25.0,30.08,SE,136,1.0,-999.0,19,-99.99,,,0.00,weatherlink.com 1.10,2013-02-11 23:56:00,
2013-02-11 16:11:00,69.6,25.0,30.08,NNE,28,0.0,-999.0,19,-99.99,,,0.00,weatherlink.com 1.10,2013-02-12 00:11:00,
2013-02-11 16:26:00,69.6,33.0,30.09,WNW,289,1.0,-999.0,26,-99.99,,,0.00,weatherlink.com 1.10,2013-02-12 00:26:00,
2013-02-11 16:41:00,67.9,33.0,30.09,West,268,0.0,-999.0,27,-99.99,,,0.00,weatherlink.com 1.10,2013-02-12 00:41:00,
2013-02-11 16:56:00,66.0,34.0,30.09,SW,223,0.0,-999.0,30,-99.99,,,0.00,weatherlink.com 1.10,2013-02-12 00:56:00,
2013-02-11 17:11:00,63.4,35.0,30.10,WNW,293,4.0,-999.0,35,-99.99,,,0.00,weatherlink.com 1.10,2013-02-12 01:11:00,
2013-02-11 17:26:00,61.0,35.0,30.10,West,279,1.0,-999.0,38,-99.99,,,0.00,weatherlink.com 1.10,2013-02-12 01:26:00,
2013-02-11 17:41:00,59.8,35.0,30.11,South,176,0.0,-999.0,39,-99.99,,,0.00,weatherlink.com 1.10,2013-02-12 01:41:00,
2013-02-11 17:56:00,58.9,36.0,30.12,South,176,0.0,-999.0,43,-99.99,,,0.00,weatherlink.com 1.10,2013-02-12 01:56:00,
2013-02-11 18:11:00,56.9,37.0,30.12,WNW,284,0.0,-999.0,47,-99.99,,,0.00,weatherlink.com 1.10,2013-02-12 02:11:00,
2013-02-11 18:26:00,54.8,37.0,30.13,WNW,284,0.0,-999.0,51,-99.99,,,0.00,weatherlink.com 1.10,2013-02-12 02:26:00,
2013-02-11 18:41:00,52.6,37.0,30.14,WNW,284,0.0,-999.0,56,-99.99,,,0.00,weatherlink.com 1.10,2013-02-12 02:41:00,
2013-02-11 18:56:00,50.5,36.0,30.14,WNW,284,0.0,-999.0,59,-99.99,,,0.00,weatherlink.com 1.10,2013-02-12 02:56:00,
2013-02-11 19:11:00,49.2,37.0,30.15,WNW,284,0.0,-999.0,62,-99.99,,,0.00,weatherlink.com 1.10,2013-02-12 03:11:00,
2013-02-11 19:26:00,48.2,36.0,30.15,WNW,284,0.0,-999.0,64,-99.99,,,0.00,weatherlink.com 1.10,2013-02-12 03:26:00,
2013-02-11 19:41:00,47.7,36.0,30.16,WNW,284,0.0,-999.0,65,-99.99,,,0.00,weatherlink.com 1.10,2013-02-12 03:41:00,
2013-02-11 19:56:00,46.4,36.0,30.16,WNW,284,0.0,-999.0,67,-99.99,,,0.00,weatherlink.com 1.10,2013-02-12 03:56:00,
2013-02-11 20:11:00,45.5,36.0,30.17,WNW,284,0.0,-999.0,69,-99.99,,,0.00,weatherlink.com 1.10,2013-02-12 04:11:00,
2013-02-11 20:26:00,45.2,36.0,30.16,WNW,284,0.0,-999.0,70,-99.99,,,0.00,weatherlink.com 1.10,2013-02-12 04:26:00,
2013-02-11 20:41:00,44.3,35.0,30.17,WNW,284,0.0,-999.0,70,-99.99,,,0.00,weatherlink.com 1.10,2013-02-12 04:41:00,
2013-02-11 20:56:00,43.3,35.0,30.17,WNW,284,0.0,-999.0,73,-99.99,,,0.00,weatherlink.com 1.10,2013-02-12 04:56:00,
2013-02-11 21:11:00,42.8,35.0,30.17,WNW,284,0.0,-999.0,74,-99.99,,,0.00,weatherlink.com 1.10,2013-02-12 05:11:00,
2013-02-11 21:26:00,42.2,35.0,30.18,WNW,284,0.0,-999.0,75,-99.99,,,0.00,weatherlink.com 1.10,2013-02-12 05:26:00,
2013-02-11 21:41:00,41.3,35.0,30.18,WNW,284,0.0,-999.0,77,-99.99,,,0.00,weatherlink.com 1.10,2013-02-12 05:41:00,
2013-02-11 21:56:00,40.5,34.0,30.18,WNW,284,0.0,-999.0,78,-99.99,,,0.00,weatherlink.com 1.10,2013-02-12 05:56:00,
2013-02-11 22:11:00,40.1,34.0,30.18,WNW,284,0.0,-999.0,79,-99.99,,,0.00,weatherlink.com 1.10,2013-02-12 06:11:00,
2013-02-11 22:26:00,39.5,34.0,30.18,WNW,284,0.0,-999.0,80,-99.99,,,0.00,weatherlink.com 1.10,2013-02-12 06:26:00,
2013-02-11 22:41:00,39.2,34.0,30.18,WNW,284,0.0,-999.0,81,-99.99,,,0.00,weatherlink.com 1.10,2013-02-12 06:41:00,
2013-02-11 22:56:00,38.8,33.0,30.18,WNW,284,0.0,-999.0,81,-99.99,,,0.00,weatherlink.com 1.10,2013-02-12 06:56:00,
2013-02-11 23:11:00,38.2,33.0,30.19,WNW,284,0.0,-999.0,82,-99.99,,,0.00,weatherlink.com 1.10,2013-02-12 07:11:00,
2013-02-11 23:26:00,37.8,33.0,30.20,WNW,284,0.0,-999.0,82,-99.99,,,0.00,weatherlink.com 1.10,2013-02-12 07:26:00,
2013-02-11 23:41:00,37.3,33.0,30.20,WNW,284,0.0,-999.0,84,-99.99,,,0.00,weatherlink.com 1.10,2013-02-12 07:41:00,
2013-02-11 23:56:00,37.0,33.0,30.20,WNW,284,0.0,-999.0,84,-99.99,,,0.00,weatherlink.com 1.10,2013-02-12 07:56:00,